sensor_id;sensor_type;location;lat;lon;timestamp;temperature;humidity
43541;DHT22;29549;40.386;-3.710;2024-01-11T00:00:05;10.90;65.80
43541;DHT22;29549;40.386;-3.710;2024-01-11T00:00:16;10.90;65.90
43541;DHT22;29549;40.386;-3.710;2024-01-11T00:00:27;10.90;65.90
43541;DHT22;29549;40.386;-3.710;2024-01-11T00:00:38;10.90;65.90
43541;DHT22;29549;40.386;-3.710;2024-01-11T00:00:48;10.90;65.90
43541;DHT22;29549;40.386;-3.710;2024-01-11T00:00:59;10.90;65.90
43541;DHT22;29549;40.386;-3.710;2024-01-11T00:01:10;10.90;65.90
43541;DHT22;29549;40.386;-3.710;2024-01-11T00:01:20;10.90;65.80
43541;DHT22;29549;40.386;-3.710;2024-01-11T00:01:31;10.90;65.80
43541;DHT22;29549;40.386;-3.710;2024-01-11T00:01:48;10.90;65.80
43541;DHT22;29549;40.386;-3.710;2024-01-11T00:01:59;10.90;65.90
43541;DHT22;29549;40.386;-3.710;2024-01-11T00:02:10;10.90;65.90
43541;DHT22;29549;40.386;-3.710;2024-01-11T00:02:21;10.90;65.90
43541;DHT22;29549;40.386;-3.710;2024-01-11T00:02:31;10.90;66.00
43541;DHT22;29549;40.386;-3.710;2024-01-11T00:02:42;10.80;65.90
43541;DHT22;29549;40.386;-3.710;2024-01-11T00:02:53;10.90;65.90
43541;DHT22;29549;40.386;-3.710;2024-01-11T00:03:04;10.90;65.90
43541;DHT22;29549;40.386;-3.710;2024-01-11T00:03:15;10.90;65.80
43541;DHT22;29549;40.386;-3.710;2024-01-11T00:03:26;10.80;65.80
43541;DHT22;29549;40.386;-3.710;2024-01-11T00:03:36;10.90;65.80
43541;DHT22;29549;40.386;-3.710;2024-01-11T00:03:47;10.80;65.70
43541;DHT22;29549;40.386;-3.710;2024-01-11T00:03:58;10.80;65.70
43541;DHT22;29549;40.386;-3.710;2024-01-11T00:04:08;10.90;65.70
43541;DHT22;29549;40.386;-3.710;2024-01-11T00:04:19;10.80;65.70
43541;DHT22;29549;40.386;-3.710;2024-01-11T00:04:30;10.80;65.70
43541;DHT22;29549;40.386;-3.710;2024-01-11T00:04:41;10.80;65.70
43541;DHT22;29549;40.386;-3.710;2024-01-11T00:04:51;10.80;65.70
43541;DHT22;29549;40.386;-3.710;2024-01-11T00:05:02;10.80;65.70
43541;DHT22;29549;40.386;-3.710;2024-01-11T00:05:13;10.80;65.60
43541;DHT22;29549;40.386;-3.710;2024-01-11T00:05:24;10.80;65.70
43541;DHT22;29549;40.386;-3.710;2024-01-11T00:05:35;10.80;65.70
43541;DHT22;29549;40.386;-3.710;2024-01-11T00:05:46;10.80;65.80
43541;DHT22;29549;40.386;-3.710;2024-01-11T00:05:56;10.80;65.90
43541;DHT22;29549;40.386;-3.710;2024-01-11T00:06:07;10.80;65.80
43541;DHT22;29549;40.386;-3.710;2024-01-11T00:06:18;10.80;65.80
43541;DHT22;29549;40.386;-3.710;2024-01-11T00:06:29;10.80;65.80
43541;DHT22;29549;40.386;-3.710;2024-01-11T00:06:43;10.80;65.80
43541;DHT22;29549;40.386;-3.710;2024-01-11T00:06:54;10.80;65.80
43541;DHT22;29549;40.386;-3.710;2024-01-11T00:07:05;10.80;65.90
43541;DHT22;29549;40.386;-3.710;2024-01-11T00:07:15;10.80;65.90
43541;DHT22;29549;40.386;-3.710;2024-01-11T00:07:26;10.80;65.90
43541;DHT22;29549;40.386;-3.710;2024-01-11T00:07:37;10.80;66.00
43541;DHT22;29549;40.386;-3.710;2024-01-11T00:07:48;10.80;66.10
43541;DHT22;29549;40.386;-3.710;2024-01-11T00:07:59;10.70;66.20
43541;DHT22;29549;40.386;-3.710;2024-01-11T00:08:11;10.80;66.20
43541;DHT22;29549;40.386;-3.710;2024-01-11T00:08:21;10.80;66.30
43541;DHT22;29549;40.386;-3.710;2024-01-11T00:08:32;10.80;66.30
43541;DHT22;29549;40.386;-3.710;2024-01-11T00:08:43;10.80;66.30
43541;DHT22;29549;40.386;-3.710;2024-01-11T00:08:54;10.70;66.30
43541;DHT22;29549;40.386;-3.710;2024-01-11T00:09:05;10.80;66.30
43541;DHT22;29549;40.386;-3.710;2024-01-11T00:09:15;10.80;66.40
43541;DHT22;29549;40.386;-3.710;2024-01-11T00:09:26;10.70;66.40
43541;DHT22;29549;40.386;-3.710;2024-01-11T00:09:42;10.80;66.40
43541;DHT22;29549;40.386;-3.710;2024-01-11T00:09:53;10.80;66.50
43541;DHT22;29549;40.386;-3.710;2024-01-11T00:10:04;10.80;66.50
43541;DHT22;29549;40.386;-3.710;2024-01-11T00:10:15;10.80;66.50
43541;DHT22;29549;40.386;-3.710;2024-01-11T00:10:26;10.70;66.50
43541;DHT22;29549;40.386;-3.710;2024-01-11T00:10:37;10.70;66.50
43541;DHT22;29549;40.386;-3.710;2024-01-11T00:10:48;10.70;66.60
43541;DHT22;29549;40.386;-3.710;2024-01-11T00:10:58;10.70;66.60
43541;DHT22;29549;40.386;-3.710;2024-01-11T00:11:10;10.70;66.70
43541;DHT22;29549;40.386;-3.710;2024-01-11T00:11:20;10.70;66.60
43541;DHT22;29549;40.386;-3.710;2024-01-11T00:11:31;10.70;66.70
43541;DHT22;29549;40.386;-3.710;2024-01-11T00:11:42;10.80;66.70
43541;DHT22;29549;40.386;-3.710;2024-01-11T00:11:53;10.70;66.70
43541;DHT22;29549;40.386;-3.710;2024-01-11T00:12:04;10.80;66.80
43541;DHT22;29549;40.386;-3.710;2024-01-11T00:12:15;10.70;66.70
43541;DHT22;29549;40.386;-3.710;2024-01-11T00:12:26;10.80;66.80
43541;DHT22;29549;40.386;-3.710;2024-01-11T00:12:36;10.70;66.70
43541;DHT22;29549;40.386;-3.710;2024-01-11T00:12:47;10.80;66.60
43541;DHT22;29549;40.386;-3.710;2024-01-11T00:12:58;10.70;66.50
43541;DHT22;29549;40.386;-3.710;2024-01-11T00:13:09;10.70;66.50
43541;DHT22;29549;40.386;-3.710;2024-01-11T00:13:20;10.70;66.50
43541;DHT22;29549;40.386;-3.710;2024-01-11T00:13:30;10.80;66.40
43541;DHT22;29549;40.386;-3.710;2024-01-11T00:13:41;10.80;66.40
43541;DHT22;29549;40.386;-3.710;2024-01-11T00:13:52;10.70;66.40
43541;DHT22;29549;40.386;-3.710;2024-01-11T00:14:03;10.70;66.30
43541;DHT22;29549;40.386;-3.710;2024-01-11T00:14:13;10.80;66.40
43541;DHT22;29549;40.386;-3.710;2024-01-11T00:14:24;10.80;66.30
43541;DHT22;29549;40.386;-3.710;2024-01-11T00:14:35;10.80;66.30
43541;DHT22;29549;40.386;-3.710;2024-01-11T00:14:46;10.80;66.30
43541;DHT22;29549;40.386;-3.710;2024-01-11T00:14:57;10.80;66.30
43541;DHT22;29549;40.386;-3.710;2024-01-11T00:15:09;10.80;66.30
43541;DHT22;29549;40.386;-3.710;2024-01-11T00:15:20;10.80;66.30
43541;DHT22;29549;40.386;-3.710;2024-01-11T00:15:31;10.70;66.40
43541;DHT22;29549;40.386;-3.710;2024-01-11T00:15:41;10.80;66.40
43541;DHT22;29549;40.386;-3.710;2024-01-11T00:15:53;10.80;66.40
43541;DHT22;29549;40.386;-3.710;2024-01-11T00:16:04;10.80;66.40
43541;DHT22;29549;40.386;-3.710;2024-01-11T00:16:15;10.80;66.30
43541;DHT22;29549;40.386;-3.710;2024-01-11T00:16:26;10.70;66.30
43541;DHT22;29549;40.386;-3.710;2024-01-11T00:16:37;10.80;66.20
43541;DHT22;29549;40.386;-3.710;2024-01-11T00:16:47;10.70;66.10
43541;DHT22;29549;40.386;-3.710;2024-01-11T00:16:58;10.70;66.10
43541;DHT22;29549;40.386;-3.710;2024-01-11T00:17:09;10.70;66.10
43541;DHT22;29549;40.386;-3.710;2024-01-11T00:17:19;10.70;66.10
43541;DHT22;29549;40.386;-3.710;2024-01-11T00:17:30;10.70;66.10
43541;DHT22;29549;40.386;-3.710;2024-01-11T00:17:41;10.70;66.10
43541;DHT22;29549;40.386;-3.710;2024-01-11T00:17:52;10.70;66.00
43541;DHT22;29549;40.386;-3.710;2024-01-11T00:18:03;10.70;66.00
43541;DHT22;29549;40.386;-3.710;2024-01-11T00:18:14;10.70;66.00
43541;DHT22;29549;40.386;-3.710;2024-01-11T00:18:24;10.70;65.90
43541;DHT22;29549;40.386;-3.710;2024-01-11T00:18:35;10.70;65.90
43541;DHT22;29549;40.386;-3.710;2024-01-11T00:18:46;10.70;65.90
43541;DHT22;29549;40.386;-3.710;2024-01-11T00:18:57;10.70;65.90
43541;DHT22;29549;40.386;-3.710;2024-01-11T00:19:08;10.70;65.90
43541;DHT22;29549;40.386;-3.710;2024-01-11T00:19:19;10.70;66.00
43541;DHT22;29549;40.386;-3.710;2024-01-11T00:19:30;10.70;65.90
43541;DHT22;29549;40.386;-3.710;2024-01-11T00:19:41;10.70;66.00
43541;DHT22;29549;40.386;-3.710;2024-01-11T00:19:52;10.70;66.00
43541;DHT22;29549;40.386;-3.710;2024-01-11T00:20:03;10.70;65.90
43541;DHT22;29549;40.386;-3.710;2024-01-11T00:20:14;10.70;65.90
43541;DHT22;29549;40.386;-3.710;2024-01-11T00:20:25;10.70;66.00
43541;DHT22;29549;40.386;-3.710;2024-01-11T00:20:35;10.70;66.00
43541;DHT22;29549;40.386;-3.710;2024-01-11T00:20:46;10.70;66.10
43541;DHT22;29549;40.386;-3.710;2024-01-11T00:20:57;10.70;66.10
43541;DHT22;29549;40.386;-3.710;2024-01-11T00:21:08;10.70;66.10
43541;DHT22;29549;40.386;-3.710;2024-01-11T00:21:19;10.70;66.20
43541;DHT22;29549;40.386;-3.710;2024-01-11T00:21:29;10.70;66.20
43541;DHT22;29549;40.386;-3.710;2024-01-11T00:21:40;10.70;66.20
43541;DHT22;29549;40.386;-3.710;2024-01-11T00:21:51;10.70;66.30
43541;DHT22;29549;40.386;-3.710;2024-01-11T00:22:02;10.70;66.30
43541;DHT22;29549;40.386;-3.710;2024-01-11T00:22:12;10.70;66.30
43541;DHT22;29549;40.386;-3.710;2024-01-11T00:22:23;10.70;66.40
43541;DHT22;29549;40.386;-3.710;2024-01-11T00:22:34;10.70;66.40
43541;DHT22;29549;40.386;-3.710;2024-01-11T00:22:45;10.70;66.30
43541;DHT22;29549;40.386;-3.710;2024-01-11T00:22:55;10.70;66.30
43541;DHT22;29549;40.386;-3.710;2024-01-11T00:23:06;10.70;66.30
43541;DHT22;29549;40.386;-3.710;2024-01-11T00:23:17;10.70;66.20
43541;DHT22;29549;40.386;-3.710;2024-01-11T00:23:27;10.70;66.30
43541;DHT22;29549;40.386;-3.710;2024-01-11T00:23:38;10.70;66.30
43541;DHT22;29549;40.386;-3.710;2024-01-11T00:23:49;10.70;66.40
43541;DHT22;29549;40.386;-3.710;2024-01-11T00:24:00;10.70;66.40
43541;DHT22;29549;40.386;-3.710;2024-01-11T00:24:11;10.70;66.50
43541;DHT22;29549;40.386;-3.710;2024-01-11T00:24:22;10.70;66.50
43541;DHT22;29549;40.386;-3.710;2024-01-11T00:24:32;10.70;66.60
43541;DHT22;29549;40.386;-3.710;2024-01-11T00:24:43;10.70;66.60
43541;DHT22;29549;40.386;-3.710;2024-01-11T00:24:54;10.70;66.60
43541;DHT22;29549;40.386;-3.710;2024-01-11T00:25:05;10.70;66.60
43541;DHT22;29549;40.386;-3.710;2024-01-11T00:25:16;10.70;66.60
43541;DHT22;29549;40.386;-3.710;2024-01-11T00:25:26;10.70;66.70
43541;DHT22;29549;40.386;-3.710;2024-01-11T00:25:37;10.70;66.60
43541;DHT22;29549;40.386;-3.710;2024-01-11T00:25:48;10.70;66.60
43541;DHT22;29549;40.386;-3.710;2024-01-11T00:25:59;10.70;66.60
43541;DHT22;29549;40.386;-3.710;2024-01-11T00:26:12;10.70;66.60
43541;DHT22;29549;40.386;-3.710;2024-01-11T00:26:23;10.70;66.60
43541;DHT22;29549;40.386;-3.710;2024-01-11T00:26:34;10.70;66.60
43541;DHT22;29549;40.386;-3.710;2024-01-11T00:26:45;10.70;66.60
43541;DHT22;29549;40.386;-3.710;2024-01-11T00:26:55;10.70;66.60
43541;DHT22;29549;40.386;-3.710;2024-01-11T00:27:06;10.70;66.70
43541;DHT22;29549;40.386;-3.710;2024-01-11T00:27:17;10.70;66.70
43541;DHT22;29549;40.386;-3.710;2024-01-11T00:27:28;10.60;66.70
43541;DHT22;29549;40.386;-3.710;2024-01-11T00:27:38;10.70;66.70
43541;DHT22;29549;40.386;-3.710;2024-01-11T00:27:49;10.60;66.70
43541;DHT22;29549;40.386;-3.710;2024-01-11T00:28:00;10.60;66.70
43541;DHT22;29549;40.386;-3.710;2024-01-11T00:28:12;10.60;66.60
43541;DHT22;29549;40.386;-3.710;2024-01-11T00:28:23;10.70;66.60
43541;DHT22;29549;40.386;-3.710;2024-01-11T00:28:33;10.70;66.60
43541;DHT22;29549;40.386;-3.710;2024-01-11T00:28:44;10.60;66.70
43541;DHT22;29549;40.386;-3.710;2024-01-11T00:28:55;10.60;66.70
43541;DHT22;29549;40.386;-3.710;2024-01-11T00:29:06;10.60;66.60
43541;DHT22;29549;40.386;-3.710;2024-01-11T00:29:17;10.70;66.60
43541;DHT22;29549;40.386;-3.710;2024-01-11T00:29:28;10.60;66.70
43541;DHT22;29549;40.386;-3.710;2024-01-11T00:29:39;10.60;66.60
43541;DHT22;29549;40.386;-3.710;2024-01-11T00:29:49;10.60;66.50
43541;DHT22;29549;40.386;-3.710;2024-01-11T00:30:00;10.60;66.50
43541;DHT22;29549;40.386;-3.710;2024-01-11T00:30:11;10.60;66.50
43541;DHT22;29549;40.386;-3.710;2024-01-11T00:30:22;10.70;66.50
43541;DHT22;29549;40.386;-3.710;2024-01-11T00:30:33;10.60;66.40
43541;DHT22;29549;40.386;-3.710;2024-01-11T00:30:44;10.60;66.50
43541;DHT22;29549;40.386;-3.710;2024-01-11T00:30:55;10.60;66.50
43541;DHT22;29549;40.386;-3.710;2024-01-11T00:31:06;10.60;66.50
43541;DHT22;29549;40.386;-3.710;2024-01-11T00:31:16;10.60;66.50
43541;DHT22;29549;40.386;-3.710;2024-01-11T00:31:27;10.60;66.60
43541;DHT22;29549;40.386;-3.710;2024-01-11T00:31:38;10.60;66.60
43541;DHT22;29549;40.386;-3.710;2024-01-11T00:31:49;10.60;66.60
43541;DHT22;29549;40.386;-3.710;2024-01-11T00:31:59;10.60;66.60
43541;DHT22;29549;40.386;-3.710;2024-01-11T00:32:10;10.60;66.60
43541;DHT22;29549;40.386;-3.710;2024-01-11T00:32:21;10.60;66.60
43541;DHT22;29549;40.386;-3.710;2024-01-11T00:32:32;10.60;66.50
43541;DHT22;29549;40.386;-3.710;2024-01-11T00:32:42;10.60;66.50
43541;DHT22;29549;40.386;-3.710;2024-01-11T00:32:53;10.60;66.40
43541;DHT22;29549;40.386;-3.710;2024-01-11T00:33:04;10.60;66.40
43541;DHT22;29549;40.386;-3.710;2024-01-11T00:33:15;10.50;66.30
43541;DHT22;29549;40.386;-3.710;2024-01-11T00:33:25;10.60;66.40
43541;DHT22;29549;40.386;-3.710;2024-01-11T00:33:36;10.60;66.40
43541;DHT22;29549;40.386;-3.710;2024-01-11T00:33:47;10.60;66.40
43541;DHT22;29549;40.386;-3.710;2024-01-11T00:33:57;10.60;66.40
43541;DHT22;29549;40.386;-3.710;2024-01-11T00:34:08;10.60;66.30
43541;DHT22;29549;40.386;-3.710;2024-01-11T00:34:19;10.50;66.20
43541;DHT22;29549;40.386;-3.710;2024-01-11T00:34:30;10.60;66.20
43541;DHT22;29549;40.386;-3.710;2024-01-11T00:34:40;10.60;66.10
43541;DHT22;29549;40.386;-3.710;2024-01-11T00:34:51;10.60;66.10
43541;DHT22;29549;40.386;-3.710;2024-01-11T00:35:03;10.60;66.00
43541;DHT22;29549;40.386;-3.710;2024-01-11T00:35:14;10.50;66.00
43541;DHT22;29549;40.386;-3.710;2024-01-11T00:35:25;10.60;66.00
43541;DHT22;29549;40.386;-3.710;2024-01-11T00:35:36;10.60;66.10
43541;DHT22;29549;40.386;-3.710;2024-01-11T00:35:46;10.60;66.10
43541;DHT22;29549;40.386;-3.710;2024-01-11T00:35:58;10.60;66.10
43541;DHT22;29549;40.386;-3.710;2024-01-11T00:36:09;10.50;66.00
43541;DHT22;29549;40.386;-3.710;2024-01-11T00:36:19;10.60;66.00
43541;DHT22;29549;40.386;-3.710;2024-01-11T00:36:31;10.60;66.00
43541;DHT22;29549;40.386;-3.710;2024-01-11T00:36:43;10.60;65.90
43541;DHT22;29549;40.386;-3.710;2024-01-11T00:36:54;10.60;66.00
43541;DHT22;29549;40.386;-3.710;2024-01-11T00:37:05;10.60;66.00
43541;DHT22;29549;40.386;-3.710;2024-01-11T00:37:16;10.60;65.90
43541;DHT22;29549;40.386;-3.710;2024-01-11T00:37:27;10.60;65.90
43541;DHT22;29549;40.386;-3.710;2024-01-11T00:37:37;10.60;65.90
43541;DHT22;29549;40.386;-3.710;2024-01-11T00:37:49;10.60;65.90
43541;DHT22;29549;40.386;-3.710;2024-01-11T00:38:00;10.60;65.80
43541;DHT22;29549;40.386;-3.710;2024-01-11T00:38:10;10.60;65.80
43541;DHT22;29549;40.386;-3.710;2024-01-11T00:38:21;10.60;65.80
43541;DHT22;29549;40.386;-3.710;2024-01-11T00:38:32;10.60;65.80
43541;DHT22;29549;40.386;-3.710;2024-01-11T00:38:43;10.60;65.80
43541;DHT22;29549;40.386;-3.710;2024-01-11T00:38:53;10.60;65.80
43541;DHT22;29549;40.386;-3.710;2024-01-11T00:39:04;10.60;65.80
43541;DHT22;29549;40.386;-3.710;2024-01-11T00:39:15;10.60;65.70
43541;DHT22;29549;40.386;-3.710;2024-01-11T00:39:26;10.60;65.70
43541;DHT22;29549;40.386;-3.710;2024-01-11T00:39:36;10.60;65.70
43541;DHT22;29549;40.386;-3.710;2024-01-11T00:39:47;10.60;65.70
43541;DHT22;29549;40.386;-3.710;2024-01-11T00:39:58;10.60;65.70
43541;DHT22;29549;40.386;-3.710;2024-01-11T00:40:09;10.60;65.70
43541;DHT22;29549;40.386;-3.710;2024-01-11T00:40:20;10.60;65.70
43541;DHT22;29549;40.386;-3.710;2024-01-11T00:40:31;10.60;65.70
43541;DHT22;29549;40.386;-3.710;2024-01-11T00:40:41;10.60;65.70
43541;DHT22;29549;40.386;-3.710;2024-01-11T00:40:53;10.60;65.70
43541;DHT22;29549;40.386;-3.710;2024-01-11T00:41:03;10.60;65.60
43541;DHT22;29549;40.386;-3.710;2024-01-11T00:41:14;10.60;65.60
43541;DHT22;29549;40.386;-3.710;2024-01-11T00:41:25;10.60;65.60
43541;DHT22;29549;40.386;-3.710;2024-01-11T00:41:36;10.60;65.60
43541;DHT22;29549;40.386;-3.710;2024-01-11T00:41:47;10.60;65.50
43541;DHT22;29549;40.386;-3.710;2024-01-11T00:41:57;10.70;65.60
43541;DHT22;29549;40.386;-3.710;2024-01-11T00:42:08;10.60;65.60
43541;DHT22;29549;40.386;-3.710;2024-01-11T00:42:19;10.60;65.50
43541;DHT22;29549;40.386;-3.710;2024-01-11T00:42:30;10.60;65.50
43541;DHT22;29549;40.386;-3.710;2024-01-11T00:42:40;10.60;65.50
43541;DHT22;29549;40.386;-3.710;2024-01-11T00:42:51;10.60;65.50
43541;DHT22;29549;40.386;-3.710;2024-01-11T00:43:02;10.60;65.40
43541;DHT22;29549;40.386;-3.710;2024-01-11T00:43:13;10.60;65.40
43541;DHT22;29549;40.386;-3.710;2024-01-11T00:43:23;10.60;65.40
43541;DHT22;29549;40.386;-3.710;2024-01-11T00:43:34;10.60;65.50
43541;DHT22;29549;40.386;-3.710;2024-01-11T00:43:45;10.60;65.50
43541;DHT22;29549;40.386;-3.710;2024-01-11T00:43:56;10.60;65.50
43541;DHT22;29549;40.386;-3.710;2024-01-11T00:44:07;10.60;65.60
43541;DHT22;29549;40.386;-3.710;2024-01-11T00:44:18;10.60;65.60
43541;DHT22;29549;40.386;-3.710;2024-01-11T00:44:29;10.60;65.70
43541;DHT22;29549;40.386;-3.710;2024-01-11T00:44:39;10.50;65.80
43541;DHT22;29549;40.386;-3.710;2024-01-11T00:44:51;10.50;65.80
43541;DHT22;29549;40.386;-3.710;2024-01-11T00:45:01;10.60;65.90
43541;DHT22;29549;40.386;-3.710;2024-01-11T00:45:12;10.60;65.90
43541;DHT22;29549;40.386;-3.710;2024-01-11T00:45:23;10.50;66.00
43541;DHT22;29549;40.386;-3.710;2024-01-11T00:45:34;10.60;66.00
43541;DHT22;29549;40.386;-3.710;2024-01-11T00:45:45;10.50;66.00
43541;DHT22;29549;40.386;-3.710;2024-01-11T00:45:56;10.60;66.10
43541;DHT22;29549;40.386;-3.710;2024-01-11T00:46:07;10.60;66.10
43541;DHT22;29549;40.386;-3.710;2024-01-11T00:46:18;10.50;66.10
43541;DHT22;29549;40.386;-3.710;2024-01-11T00:46:29;10.50;66.10
43541;DHT22;29549;40.386;-3.710;2024-01-11T00:46:40;10.60;66.10
43541;DHT22;29549;40.386;-3.710;2024-01-11T00:46:51;10.50;66.10
43541;DHT22;29549;40.386;-3.710;2024-01-11T00:47:02;10.50;66.10
43541;DHT22;29549;40.386;-3.710;2024-01-11T00:47:12;10.50;66.10
43541;DHT22;29549;40.386;-3.710;2024-01-11T00:47:23;10.50;66.10
43541;DHT22;29549;40.386;-3.710;2024-01-11T00:47:34;10.50;66.10
43541;DHT22;29549;40.386;-3.710;2024-01-11T00:47:45;10.50;66.20
43541;DHT22;29549;40.386;-3.710;2024-01-11T00:47:55;10.50;66.10
43541;DHT22;29549;40.386;-3.710;2024-01-11T00:48:06;10.50;66.20
43541;DHT22;29549;40.386;-3.710;2024-01-11T00:48:17;10.50;66.20
43541;DHT22;29549;40.386;-3.710;2024-01-11T00:48:28;10.40;66.20
43541;DHT22;29549;40.386;-3.710;2024-01-11T00:48:38;10.50;66.20
43541;DHT22;29549;40.386;-3.710;2024-01-11T00:48:49;10.50;66.20
43541;DHT22;29549;40.386;-3.710;2024-01-11T00:49:00;10.50;66.20
43541;DHT22;29549;40.386;-3.710;2024-01-11T00:49:11;10.50;66.20
43541;DHT22;29549;40.386;-3.710;2024-01-11T00:49:21;10.40;66.20
43541;DHT22;29549;40.386;-3.710;2024-01-11T00:49:32;10.50;66.20
43541;DHT22;29549;40.386;-3.710;2024-01-11T00:49:43;10.50;66.20
43541;DHT22;29549;40.386;-3.710;2024-01-11T00:49:54;10.50;66.20
43541;DHT22;29549;40.386;-3.710;2024-01-11T00:50:05;10.40;66.30
43541;DHT22;29549;40.386;-3.710;2024-01-11T00:50:16;10.40;66.30
43541;DHT22;29549;40.386;-3.710;2024-01-11T00:50:27;10.40;66.30
43541;DHT22;29549;40.386;-3.710;2024-01-11T00:50:37;10.40;66.40
43541;DHT22;29549;40.386;-3.710;2024-01-11T00:50:48;10.40;66.40
43541;DHT22;29549;40.386;-3.710;2024-01-11T00:50:59;10.40;66.40
43541;DHT22;29549;40.386;-3.710;2024-01-11T00:51:10;10.40;66.40
43541;DHT22;29549;40.386;-3.710;2024-01-11T00:51:20;10.40;66.50
43541;DHT22;29549;40.386;-3.710;2024-01-11T00:51:31;10.40;66.40
43541;DHT22;29549;40.386;-3.710;2024-01-11T00:51:42;10.40;66.50
43541;DHT22;29549;40.386;-3.710;2024-01-11T00:51:52;10.40;66.50
43541;DHT22;29549;40.386;-3.710;2024-01-11T00:52:03;10.40;66.50
43541;DHT22;29549;40.386;-3.710;2024-01-11T00:52:14;10.40;66.50
43541;DHT22;29549;40.386;-3.710;2024-01-11T00:52:25;10.40;66.50
43541;DHT22;29549;40.386;-3.710;2024-01-11T00:52:36;10.40;66.50
43541;DHT22;29549;40.386;-3.710;2024-01-11T00:52:46;10.40;66.50
43541;DHT22;29549;40.386;-3.710;2024-01-11T00:52:57;10.40;66.50
43541;DHT22;29549;40.386;-3.710;2024-01-11T00:53:08;10.40;66.50
43541;DHT22;29549;40.386;-3.710;2024-01-11T00:53:20;10.40;66.50
43541;DHT22;29549;40.386;-3.710;2024-01-11T00:53:30;10.40;66.40
43541;DHT22;29549;40.386;-3.710;2024-01-11T00:53:41;10.40;66.40
43541;DHT22;29549;40.386;-3.710;2024-01-11T00:53:52;10.40;66.50
43541;DHT22;29549;40.386;-3.710;2024-01-11T00:54:03;10.40;66.50
43541;DHT22;29549;40.386;-3.710;2024-01-11T00:54:14;10.40;66.50
43541;DHT22;29549;40.386;-3.710;2024-01-11T00:54:25;10.40;66.50
43541;DHT22;29549;40.386;-3.710;2024-01-11T00:54:35;10.40;66.40
43541;DHT22;29549;40.386;-3.710;2024-01-11T00:54:46;10.40;66.40
43541;DHT22;29549;40.386;-3.710;2024-01-11T00:54:57;10.40;66.40
43541;DHT22;29549;40.386;-3.710;2024-01-11T00:55:08;10.40;66.40
43541;DHT22;29549;40.386;-3.710;2024-01-11T00:55:18;10.40;66.30
43541;DHT22;29549;40.386;-3.710;2024-01-11T00:55:29;10.40;66.30
43541;DHT22;29549;40.386;-3.710;2024-01-11T00:55:40;10.30;66.30
43541;DHT22;29549;40.386;-3.710;2024-01-11T00:55:51;10.40;66.30
43541;DHT22;29549;40.386;-3.710;2024-01-11T00:56:02;10.40;66.20
43541;DHT22;29549;40.386;-3.710;2024-01-11T00:56:17;10.40;66.20
43541;DHT22;29549;40.386;-3.710;2024-01-11T00:56:27;10.40;66.10
43541;DHT22;29549;40.386;-3.710;2024-01-11T00:56:38;10.40;66.20
43541;DHT22;29549;40.386;-3.710;2024-01-11T00:56:49;10.30;66.10
43541;DHT22;29549;40.386;-3.710;2024-01-11T00:57:00;10.30;66.10
43541;DHT22;29549;40.386;-3.710;2024-01-11T00:57:10;10.40;66.20
43541;DHT22;29549;40.386;-3.710;2024-01-11T00:57:21;10.40;66.20
43541;DHT22;29549;40.386;-3.710;2024-01-11T00:57:32;10.30;66.10
43541;DHT22;29549;40.386;-3.710;2024-01-11T00:57:43;10.30;66.10
43541;DHT22;29549;40.386;-3.710;2024-01-11T00:57:53;10.40;66.10
43541;DHT22;29549;40.386;-3.710;2024-01-11T00:58:04;10.40;66.00
43541;DHT22;29549;40.386;-3.710;2024-01-11T00:58:15;10.30;66.00
43541;DHT22;29549;40.386;-3.710;2024-01-11T00:58:26;10.30;66.00
43541;DHT22;29549;40.386;-3.710;2024-01-11T00:58:38;10.40;66.00
43541;DHT22;29549;40.386;-3.710;2024-01-11T00:58:48;10.40;66.00
43541;DHT22;29549;40.386;-3.710;2024-01-11T00:59:00;10.40;66.10
43541;DHT22;29549;40.386;-3.710;2024-01-11T00:59:11;10.30;66.20
43541;DHT22;29549;40.386;-3.710;2024-01-11T00:59:21;10.30;66.20
43541;DHT22;29549;40.386;-3.710;2024-01-11T00:59:32;10.30;66.30
43541;DHT22;29549;40.386;-3.710;2024-01-11T00:59:43;10.40;66.30
43541;DHT22;29549;40.386;-3.710;2024-01-11T00:59:54;10.30;66.20
43541;DHT22;29549;40.386;-3.710;2024-01-11T01:00:06;10.30;66.20
43541;DHT22;29549;40.386;-3.710;2024-01-11T01:00:17;10.30;66.20
43541;DHT22;29549;40.386;-3.710;2024-01-11T01:00:28;10.30;66.10
43541;DHT22;29549;40.386;-3.710;2024-01-11T01:00:39;10.30;66.10
43541;DHT22;29549;40.386;-3.710;2024-01-11T01:00:49;10.30;66.00
43541;DHT22;29549;40.386;-3.710;2024-01-11T01:01:00;10.30;66.00
43541;DHT22;29549;40.386;-3.710;2024-01-11T01:01:12;10.30;66.00
43541;DHT22;29549;40.386;-3.710;2024-01-11T01:01:22;10.30;65.90
43541;DHT22;29549;40.386;-3.710;2024-01-11T01:01:33;10.30;65.90
43541;DHT22;29549;40.386;-3.710;2024-01-11T01:01:50;10.30;65.90
43541;DHT22;29549;40.386;-3.710;2024-01-11T01:02:01;10.30;65.90
43541;DHT22;29549;40.386;-3.710;2024-01-11T01:02:12;10.30;65.90
43541;DHT22;29549;40.386;-3.710;2024-01-11T01:02:22;10.30;66.00
43541;DHT22;29549;40.386;-3.710;2024-01-11T01:02:33;10.30;66.00
43541;DHT22;29549;40.386;-3.710;2024-01-11T01:02:44;10.30;66.00
43541;DHT22;29549;40.386;-3.710;2024-01-11T01:02:55;10.30;66.00
43541;DHT22;29549;40.386;-3.710;2024-01-11T01:03:05;10.30;65.90
43541;DHT22;29549;40.386;-3.710;2024-01-11T01:03:17;10.30;65.90
43541;DHT22;29549;40.386;-3.710;2024-01-11T01:03:28;10.30;65.90
43541;DHT22;29549;40.386;-3.710;2024-01-11T01:03:39;10.30;65.80
43541;DHT22;29549;40.386;-3.710;2024-01-11T01:03:50;10.30;65.80
43541;DHT22;29549;40.386;-3.710;2024-01-11T01:04:01;10.30;65.80
43541;DHT22;29549;40.386;-3.710;2024-01-11T01:04:12;10.30;65.80
43541;DHT22;29549;40.386;-3.710;2024-01-11T01:04:23;10.30;65.80
43541;DHT22;29549;40.386;-3.710;2024-01-11T01:04:38;10.30;65.90
43541;DHT22;29549;40.386;-3.710;2024-01-11T01:04:49;10.30;65.80
43541;DHT22;29549;40.386;-3.710;2024-01-11T01:05:00;10.30;65.80
43541;DHT22;29549;40.386;-3.710;2024-01-11T01:05:10;10.30;65.80
43541;DHT22;29549;40.386;-3.710;2024-01-11T01:05:21;10.30;65.90
43541;DHT22;29549;40.386;-3.710;2024-01-11T01:05:32;10.30;65.90
43541;DHT22;29549;40.386;-3.710;2024-01-11T01:05:43;10.30;65.80
43541;DHT22;29549;40.386;-3.710;2024-01-11T01:05:53;10.30;65.90
43541;DHT22;29549;40.386;-3.710;2024-01-11T01:06:04;10.30;65.90
43541;DHT22;29549;40.386;-3.710;2024-01-11T01:06:15;10.30;65.90
43541;DHT22;29549;40.386;-3.710;2024-01-11T01:06:26;10.20;65.90
43541;DHT22;29549;40.386;-3.710;2024-01-11T01:06:37;10.30;65.90
43541;DHT22;29549;40.386;-3.710;2024-01-11T01:06:48;10.30;65.80
43541;DHT22;29549;40.386;-3.710;2024-01-11T01:06:59;10.20;65.80
43541;DHT22;29549;40.386;-3.710;2024-01-11T01:07:09;10.20;65.90
43541;DHT22;29549;40.386;-3.710;2024-01-11T01:07:20;10.20;65.90
43541;DHT22;29549;40.386;-3.710;2024-01-11T01:07:31;10.20;66.00
43541;DHT22;29549;40.386;-3.710;2024-01-11T01:07:41;10.20;66.00
43541;DHT22;29549;40.386;-3.710;2024-01-11T01:07:52;10.20;66.10